sensor_id;sensor_type;location;lat;lon;timestamp;temperature;humidity
46608;DHT22;32330;51.936;7.184;2024-01-15T00:01:07;1.70;99.90
46608;DHT22;32330;51.936;7.184;2024-01-15T00:03:34;1.70;99.90
46608;DHT22;32330;51.936;7.184;2024-01-15T00:06:01;1.60;99.90
46608;DHT22;32330;51.936;7.184;2024-01-15T00:08:29;1.70;99.90
46608;DHT22;32330;51.936;7.184;2024-01-15T00:10:55;1.70;99.90
46608;DHT22;32330;51.936;7.184;2024-01-15T00:13:24;1.70;99.90
46608;DHT22;32330;51.936;7.184;2024-01-15T00:15:51;1.70;99.90
46608;DHT22;32330;51.936;7.184;2024-01-15T00:18:18;1.70;99.90
46608;DHT22;32330;51.936;7.184;2024-01-15T00:20:45;1.70;99.90
46608;DHT22;32330;51.936;7.184;2024-01-15T00:23:12;1.70;99.90
46608;DHT22;32330;51.936;7.184;2024-01-15T00:25:39;1.70;99.90
46608;DHT22;32330;51.936;7.184;2024-01-15T00:28:06;1.70;99.90
46608;DHT22;32330;51.936;7.184;2024-01-15T00:30:33;1.70;99.90
46608;DHT22;32330;51.936;7.184;2024-01-15T00:33:00;1.70;99.90
46608;DHT22;32330;51.936;7.184;2024-01-15T00:35:27;1.70;99.90
46608;DHT22;32330;51.936;7.184;2024-01-15T00:37:54;1.70;99.90
46608;DHT22;32330;51.936;7.184;2024-01-15T00:40:21;1.70;99.90
46608;DHT22;32330;51.936;7.184;2024-01-15T00:42:48;1.70;99.90
46608;DHT22;32330;51.936;7.184;2024-01-15T00:45:15;1.70;99.90
46608;DHT22;32330;51.936;7.184;2024-01-15T00:47:43;1.70;99.90
46608;DHT22;32330;51.936;7.184;2024-01-15T00:50:11;1.70;99.90
46608;DHT22;32330;51.936;7.184;2024-01-15T00:52:38;1.70;99.90
46608;DHT22;32330;51.936;7.184;2024-01-15T00:55:05;1.70;99.90
46608;DHT22;32330;51.936;7.184;2024-01-15T00:57:32;1.80;99.90
46608;DHT22;32330;51.936;7.184;2024-01-15T00:59:59;1.70;99.90
46608;DHT22;32330;51.936;7.184;2024-01-15T01:02:26;1.70;99.90
46608;DHT22;32330;51.936;7.184;2024-01-15T01:04:54;1.70;99.90
46608;DHT22;32330;51.936;7.184;2024-01-15T01:07:21;1.70;99.90
46608;DHT22;32330;51.936;7.184;2024-01-15T01:09:48;1.70;99.90
46608;DHT22;32330;51.936;7.184;2024-01-15T01:12:16;1.70;99.90
46608;DHT22;32330;51.936;7.184;2024-01-15T01:14:43;1.70;99.90
46608;DHT22;32330;51.936;7.184;2024-01-15T01:17:10;1.70;99.90
46608;DHT22;32330;51.936;7.184;2024-01-15T01:19:37;1.70;99.90
46608;DHT22;32330;51.936;7.184;2024-01-15T01:22:06;1.70;99.90
46608;DHT22;32330;51.936;7.184;2024-01-15T01:24:33;1.70;99.90
46608;DHT22;32330;51.936;7.184;2024-01-15T01:27:00;1.70;99.90
46608;DHT22;32330;51.936;7.184;2024-01-15T01:29:27;1.70;99.90
46608;DHT22;32330;51.936;7.184;2024-01-15T01:31:54;1.70;99.90
46608;DHT22;32330;51.936;7.184;2024-01-15T01:34:22;1.70;99.90
46608;DHT22;32330;51.936;7.184;2024-01-15T01:36:49;1.70;99.90
46608;DHT22;32330;51.936;7.184;2024-01-15T01:39:17;1.70;99.90
46608;DHT22;32330;51.936;7.184;2024-01-15T01:41:44;1.70;99.90
46608;DHT22;32330;51.936;7.184;2024-01-15T01:44:11;1.80;99.90
46608;DHT22;32330;51.936;7.184;2024-01-15T01:46:38;1.70;99.90
46608;DHT22;32330;51.936;7.184;2024-01-15T01:49:06;1.80;99.90
46608;DHT22;32330;51.936;7.184;2024-01-15T01:51:35;1.80;99.90
46608;DHT22;32330;51.936;7.184;2024-01-15T01:54:04;1.80;99.90
46608;DHT22;32330;51.936;7.184;2024-01-15T01:56:34;1.70;99.90
46608;DHT22;32330;51.936;7.184;2024-01-15T01:59:01;1.70;99.90
46608;DHT22;32330;51.936;7.184;2024-01-15T02:01:29;1.70;99.90
46608;DHT22;32330;51.936;7.184;2024-01-15T02:03:56;1.70;99.90
46608;DHT22;32330;51.936;7.184;2024-01-15T02:06:23;1.70;99.90
46608;DHT22;32330;51.936;7.184;2024-01-15T02:08:51;1.70;99.90
46608;DHT22;32330;51.936;7.184;2024-01-15T02:11:18;1.60;99.90
46608;DHT22;32330;51.936;7.184;2024-01-15T02:13:47;1.60;99.90
46608;DHT22;32330;51.936;7.184;2024-01-15T02:16:14;1.60;99.90
46608;DHT22;32330;51.936;7.184;2024-01-15T02:18:41;1.50;99.90
46608;DHT22;32330;51.936;7.184;2024-01-15T02:21:09;1.50;99.90
46608;DHT22;32330;51.936;7.184;2024-01-15T02:23:37;1.50;99.90
46608;DHT22;32330;51.936;7.184;2024-01-15T02:26:05;1.50;99.90
46608;DHT22;32330;51.936;7.184;2024-01-15T02:28:33;1.50;99.90
46608;DHT22;32330;51.936;7.184;2024-01-15T02:31:00;1.60;99.90
46608;DHT22;32330;51.936;7.184;2024-01-15T02:33:27;1.50;99.90
46608;DHT22;32330;51.936;7.184;2024-01-15T02:35:54;1.50;99.90
46608;DHT22;32330;51.936;7.184;2024-01-15T02:38:21;1.50;99.90
46608;DHT22;32330;51.936;7.184;2024-01-15T02:40:50;1.50;99.90
46608;DHT22;32330;51.936;7.184;2024-01-15T02:43:17;1.50;99.90
46608;DHT22;32330;51.936;7.184;2024-01-15T02:45:45;1.50;99.90
46608;DHT22;32330;51.936;7.184;2024-01-15T02:48:12;1.50;99.90
46608;DHT22;32330;51.936;7.184;2024-01-15T02:50:39;1.50;99.90
46608;DHT22;32330;51.936;7.184;2024-01-15T02:53:06;1.50;99.90
46608;DHT22;32330;51.936;7.184;2024-01-15T02:55:33;1.50;99.90
46608;DHT22;32330;51.936;7.184;2024-01-15T02:58:02;1.40;99.90
46608;DHT22;32330;51.936;7.184;2024-01-15T03:00:29;1.40;99.90
46608;DHT22;32330;51.936;7.184;2024-01-15T03:02:56;1.40;99.90
46608;DHT22;32330;51.936;7.184;2024-01-15T03:05:23;1.40;99.90
46608;DHT22;32330;51.936;7.184;2024-01-15T03:07:50;1.40;99.90
46608;DHT22;32330;51.936;7.184;2024-01-15T03:10:17;1.40;99.90
46608;DHT22;32330;51.936;7.184;2024-01-15T03:12:44;1.30;99.90
46608;DHT22;32330;51.936;7.184;2024-01-15T03:15:13;1.40;99.90
46608;DHT22;32330;51.936;7.184;2024-01-15T03:17:41;1.30;99.90
46608;DHT22;32330;51.936;7.184;2024-01-15T03:20:10;1.30;99.90
46608;DHT22;32330;51.936;7.184;2024-01-15T03:22:37;1.30;99.90
46608;DHT22;32330;51.936;7.184;2024-01-15T03:25:04;1.30;99.90
46608;DHT22;32330;51.936;7.184;2024-01-15T03:27:31;1.30;99.90
46608;DHT22;32330;51.936;7.184;2024-01-15T03:29:59;1.30;99.90
46608;DHT22;32330;51.936;7.184;2024-01-15T03:32:27;1.30;99.90
46608;DHT22;32330;51.936;7.184;2024-01-15T03:34:54;1.20;99.90
46608;DHT22;32330;51.936;7.184;2024-01-15T03:37:21;1.30;99.90
46608;DHT22;32330;51.936;7.184;2024-01-15T03:39:48;1.30;99.90
46608;DHT22;32330;51.936;7.184;2024-01-15T03:42:15;1.30;99.90
46608;DHT22;32330;51.936;7.184;2024-01-15T03:44:42;1.30;99.90
46608;DHT22;32330;51.936;7.184;2024-01-15T03:47:09;1.30;99.90
46608;DHT22;32330;51.936;7.184;2024-01-15T03:49:37;1.30;99.90
46608;DHT22;32330;51.936;7.184;2024-01-15T03:52:05;1.30;99.90
46608;DHT22;32330;51.936;7.184;2024-01-15T03:54:32;1.30;99.90
46608;DHT22;32330;51.936;7.184;2024-01-15T03:56:59;1.30;99.90
46608;DHT22;32330;51.936;7.184;2024-01-15T03:59:26;1.30;99.90
46608;DHT22;32330;51.936;7.184;2024-01-15T04:01:53;1.20;99.90
46608;DHT22;32330;51.936;7.184;2024-01-15T04:04:20;1.30;99.90
46608;DHT22;32330;51.936;7.184;2024-01-15T04:06:48;1.30;99.90
46608;DHT22;32330;51.936;7.184;2024-01-15T04:09:15;1.20;99.90
46608;DHT22;32330;51.936;7.184;2024-01-15T04:11:42;1.30;99.90
46608;DHT22;32330;51.936;7.184;2024-01-15T04:14:09;1.30;99.90
46608;DHT22;32330;51.936;7.184;2024-01-15T04:16:37;1.30;99.90
46608;DHT22;32330;51.936;7.184;2024-01-15T04:19:04;1.20;99.90
46608;DHT22;32330;51.936;7.184;2024-01-15T04:21:31;1.30;99.90
46608;DHT22;32330;51.936;7.184;2024-01-15T04:23:59;1.30;99.90
46608;DHT22;32330;51.936;7.184;2024-01-15T04:26:26;1.30;99.90
46608;DHT22;32330;51.936;7.184;2024-01-15T04:28:53;1.30;99.90
46608;DHT22;32330;51.936;7.184;2024-01-15T04:31:22;1.30;99.90
46608;DHT22;32330;51.936;7.184;2024-01-15T04:33:49;1.30;99.90
46608;DHT22;32330;51.936;7.184;2024-01-15T04:36:16;1.30;99.90
46608;DHT22;32330;51.936;7.184;2024-01-15T04:38:43;1.30;99.90
46608;DHT22;32330;51.936;7.184;2024-01-15T04:41:13;1.30;99.90
46608;DHT22;32330;51.936;7.184;2024-01-15T04:43:40;1.30;99.90
46608;DHT22;32330;51.936;7.184;2024-01-15T04:46:07;1.30;99.90
46608;DHT22;32330;51.936;7.184;2024-01-15T04:48:34;1.30;99.90
46608;DHT22;32330;51.936;7.184;2024-01-15T04:51:04;1.30;99.90
46608;DHT22;32330;51.936;7.184;2024-01-15T04:53:31;1.30;99.90
46608;DHT22;32330;51.936;7.184;2024-01-15T04:55:58;1.30;99.90
46608;DHT22;32330;51.936;7.184;2024-01-15T04:58:27;1.20;99.90
46608;DHT22;32330;51.936;7.184;2024-01-15T05:00:53;1.20;99.90
46608;DHT22;32330;51.936;7.184;2024-01-15T05:03:21;1.20;99.90
46608;DHT22;32330;51.936;7.184;2024-01-15T05:05:48;1.20;99.90
46608;DHT22;32330;51.936;7.184;2024-01-15T05:08:15;1.20;99.90
46608;DHT22;32330;51.936;7.184;2024-01-15T05:10:42;1.20;99.90
46608;DHT22;32330;51.936;7.184;2024-01-15T05:13:09;1.20;99.90
46608;DHT22;32330;51.936;7.184;2024-01-15T05:15:38;1.20;99.90
46608;DHT22;32330;51.936;7.184;2024-01-15T05:18:05;1.20;99.90
46608;DHT22;32330;51.936;7.184;2024-01-15T05:20:32;1.20;99.90
46608;DHT22;32330;51.936;7.184;2024-01-15T05:22:59;1.20;99.90
46608;DHT22;32330;51.936;7.184;2024-01-15T05:25:26;1.20;99.90
46608;DHT22;32330;51.936;7.184;2024-01-15T05:28:02;1.30;99.90
46608;DHT22;32330;51.936;7.184;2024-01-15T05:30:29;1.30;99.90
46608;DHT22;32330;51.936;7.184;2024-01-15T05:32:57;1.30;99.90
46608;DHT22;32330;51.936;7.184;2024-01-15T05:35:25;1.30;99.90
46608;DHT22;32330;51.936;7.184;2024-01-15T05:37:53;1.30;99.90
46608;DHT22;32330;51.936;7.184;2024-01-15T05:40:20;1.30;99.90
46608;DHT22;32330;51.936;7.184;2024-01-15T05:42:47;1.30;99.90
46608;DHT22;32330;51.936;7.184;2024-01-15T05:45:14;1.30;99.90
46608;DHT22;32330;51.936;7.184;2024-01-15T05:47:41;1.30;99.90
46608;DHT22;32330;51.936;7.184;2024-01-15T05:50:11;1.30;99.90
46608;DHT22;32330;51.936;7.184;2024-01-15T05:52:38;1.30;99.90
46608;DHT22;32330;51.936;7.184;2024-01-15T05:55:05;1.30;99.90
46608;DHT22;32330;51.936;7.184;2024-01-15T05:57:32;1.30;99.90
46608;DHT22;32330;51.936;7.184;2024-01-15T06:00:00;1.30;99.90
46608;DHT22;32330;51.936;7.184;2024-01-15T06:02:27;1.30;99.90
46608;DHT22;32330;51.936;7.184;2024-01-15T06:04:54;1.30;99.90
46608;DHT22;32330;51.936;7.184;2024-01-15T06:07:22;1.40;99.90
46608;DHT22;32330;51.936;7.184;2024-01-15T06:09:50;1.30;99.90
46608;DHT22;32330;51.936;7.184;2024-01-15T06:12:19;1.40;99.90
46608;DHT22;32330;51.936;7.184;2024-01-15T06:14:46;1.30;99.90
46608;DHT22;32330;51.936;7.184;2024-01-15T06:17:13;1.30;99.90
46608;DHT22;32330;51.936;7.184;2024-01-15T06:23:13;1.30;99.90
46608;DHT22;32330;51.936;7.184;2024-01-15T06:25:40;1.20;99.90
46608;DHT22;32330;51.936;7.184;2024-01-15T06:28:07;1.20;99.90
46608;DHT22;32330;51.936;7.184;2024-01-15T06:30:35;1.30;99.90
46608;DHT22;32330;51.936;7.184;2024-01-15T06:33:02;1.20;99.90
46608;DHT22;32330;51.936;7.184;2024-01-15T06:35:29;1.20;99.90
46608;DHT22;32330;51.936;7.184;2024-01-15T06:37:59;1.30;99.90
46608;DHT22;32330;51.936;7.184;2024-01-15T06:40:49;1.20;99.90
46608;DHT22;32330;51.936;7.184;2024-01-15T06:43:17;1.20;99.90
46608;DHT22;32330;51.936;7.184;2024-01-15T06:45:44;1.20;99.90
46608;DHT22;32330;51.936;7.184;2024-01-15T06:48:11;1.20;99.90
46608;DHT22;32330;51.936;7.184;2024-01-15T06:50:40;1.20;99.90
46608;DHT22;32330;51.936;7.184;2024-01-15T06:53:07;1.20;99.90
46608;DHT22;32330;51.936;7.184;2024-01-15T06:55:34;1.20;99.90
46608;DHT22;32330;51.936;7.184;2024-01-15T06:58:02;1.30;99.90
46608;DHT22;32330;51.936;7.184;2024-01-15T07:00:30;1.30;99.90
46608;DHT22;32330;51.936;7.184;2024-01-15T07:02:57;1.30;99.90
46608;DHT22;32330;51.936;7.184;2024-01-15T07:05:24;1.30;99.90
46608;DHT22;32330;51.936;7.184;2024-01-15T07:07:51;1.30;99.90
46608;DHT22;32330;51.936;7.184;2024-01-15T07:10:18;1.30;99.90
46608;DHT22;32330;51.936;7.184;2024-01-15T07:12:45;1.30;99.90
46608;DHT22;32330;51.936;7.184;2024-01-15T07:15:14;1.30;99.90
46608;DHT22;32330;51.936;7.184;2024-01-15T07:17:41;1.30;99.90
46608;DHT22;32330;51.936;7.184;2024-01-15T07:20:09;1.30;99.90
46608;DHT22;32330;51.936;7.184;2024-01-15T07:22:36;1.30;99.90
46608;DHT22;32330;51.936;7.184;2024-01-15T07:25:04;1.30;99.90
46608;DHT22;32330;51.936;7.184;2024-01-15T07:27:32;1.30;99.90
46608;DHT22;32330;51.936;7.184;2024-01-15T07:29:59;1.30;99.90
46608;DHT22;32330;51.936;7.184;2024-01-15T07:32:27;1.30;99.90
46608;DHT22;32330;51.936;7.184;2024-01-15T07:34:54;1.30;99.90
46608;DHT22;32330;51.936;7.184;2024-01-15T07:37:21;1.30;99.90
46608;DHT22;32330;51.936;7.184;2024-01-15T07:39:49;1.30;99.90
46608;DHT22;32330;51.936;7.184;2024-01-15T07:42:16;1.30;99.90
46608;DHT22;32330;51.936;7.184;2024-01-15T07:44:43;1.30;99.90
46608;DHT22;32330;51.936;7.184;2024-01-15T07:47:10;1.30;99.90
46608;DHT22;32330;51.936;7.184;2024-01-15T07:49:39;1.30;99.90
46608;DHT22;32330;51.936;7.184;2024-01-15T07:52:06;1.30;99.90
46608;DHT22;32330;51.936;7.184;2024-01-15T07:54:33;1.40;99.90
46608;DHT22;32330;51.936;7.184;2024-01-15T07:57:01;1.30;99.90
46608;DHT22;32330;51.936;7.184;2024-01-15T07:59:29;1.40;99.90
46608;DHT22;32330;51.936;7.184;2024-01-15T08:01:57;1.40;99.90
46608;DHT22;32330;51.936;7.184;2024-01-15T08:04:25;1.40;99.90
46608;DHT22;32330;51.936;7.184;2024-01-15T08:06:53;1.40;99.90
46608;DHT22;32330;51.936;7.184;2024-01-15T08:09:20;1.40;99.90
46608;DHT22;32330;51.936;7.184;2024-01-15T08:11:47;1.40;99.90
46608;DHT22;32330;51.936;7.184;2024-01-15T08:14:15;1.40;99.90
46608;DHT22;32330;51.936;7.184;2024-01-15T08:16:42;1.40;99.90
46608;DHT22;32330;51.936;7.184;2024-01-15T08:19:09;1.40;99.90
46608;DHT22;32330;51.936;7.184;2024-01-15T08:21:36;1.40;99.90
46608;DHT22;32330;51.936;7.184;2024-01-15T08:24:05;1.50;99.90
46608;DHT22;32330;51.936;7.184;2024-01-15T08:26:32;1.50;99.90
46608;DHT22;32330;51.936;7.184;2024-01-15T08:29:00;1.50;99.90
46608;DHT22;32330;51.936;7.184;2024-01-15T08:31:27;1.50;99.90
46608;DHT22;32330;51.936;7.184;2024-01-15T08:33:54;1.60;99.90
46608;DHT22;32330;51.936;7.184;2024-01-15T08:36:22;1.60;99.90
46608;DHT22;32330;51.936;7.184;2024-01-15T08:38:49;1.60;99.90
46608;DHT22;32330;51.936;7.184;2024-01-15T08:41:18;1.50;99.90
46608;DHT22;32330;51.936;7.184;2024-01-15T08:43:45;1.60;99.90
46608;DHT22;32330;51.936;7.184;2024-01-15T08:46:12;1.60;99.90
46608;DHT22;32330;51.936;7.184;2024-01-15T08:48:39;1.50;99.90
46608;DHT22;32330;51.936;7.184;2024-01-15T08:51:06;1.60;99.90
46608;DHT22;32330;51.936;7.184;2024-01-15T08:53:34;1.50;99.90
46608;DHT22;32330;51.936;7.184;2024-01-15T08:56:02;1.60;99.90
46608;DHT22;32330;51.936;7.184;2024-01-15T08:58:30;1.50;99.90
46608;DHT22;32330;51.936;7.184;2024-01-15T09:00:57;1.60;99.90
46608;DHT22;32330;51.936;7.184;2024-01-15T09:03:24;1.50;99.90
46608;DHT22;32330;51.936;7.184;2024-01-15T09:05:51;1.60;99.90
46608;DHT22;32330;51.936;7.184;2024-01-15T09:08:18;1.60;99.90
46608;DHT22;32330;51.936;7.184;2024-01-15T09:10:45;1.60;99.90
46608;DHT22;32330;51.936;7.184;2024-01-15T09:13:13;1.70;99.90
46608;DHT22;32330;51.936;7.184;2024-01-15T09:15:41;1.70;99.90
46608;DHT22;32330;51.936;7.184;2024-01-15T09:18:09;1.70;99.90
46608;DHT22;32330;51.936;7.184;2024-01-15T09:20:36;1.70;99.90
46608;DHT22;32330;51.936;7.184;2024-01-15T09:23:04;1.70;99.90
46608;DHT22;32330;51.936;7.184;2024-01-15T09:25:31;1.70;99.90
46608;DHT22;32330;51.936;7.184;2024-01-15T09:27:58;1.70;99.90
46608;DHT22;32330;51.936;7.184;2024-01-15T09:30:25;1.70;99.90
46608;DHT22;32330;51.936;7.184;2024-01-15T09:32:54;1.70;99.90
46608;DHT22;32330;51.936;7.184;2024-01-15T09:35:21;1.80;99.90
46608;DHT22;32330;51.936;7.184;2024-01-15T09:37:48;1.80;99.90
46608;DHT22;32330;51.936;7.184;2024-01-15T09:40:15;1.80;99.90
46608;DHT22;32330;51.936;7.184;2024-01-15T09:42:42;1.70;99.90
46608;DHT22;32330;51.936;7.184;2024-01-15T09:45:10;1.70;99.90
46608;DHT22;32330;51.936;7.184;2024-01-15T09:47:37;1.70;99.90
46608;DHT22;32330;51.936;7.184;2024-01-15T09:50:07;1.70;99.90
46608;DHT22;32330;51.936;7.184;2024-01-15T09:52:34;1.80;99.90
46608;DHT22;32330;51.936;7.184;2024-01-15T09:55:03;1.80;99.90
46608;DHT22;32330;51.936;7.184;2024-01-15T09:57:31;1.80;99.90
46608;DHT22;32330;51.936;7.184;2024-01-15T10:00:02;1.80;99.90
46608;DHT22;32330;51.936;7.184;2024-01-15T10:02:31;1.80;99.90
46608;DHT22;32330;51.936;7.184;2024-01-15T10:04:58;2.00;99.90
46608;DHT22;32330;51.936;7.184;2024-01-15T10:07:29;2.20;99.90
46608;DHT22;32330;51.936;7.184;2024-01-15T10:09:57;2.10;99.90
46608;DHT22;32330;51.936;7.184;2024-01-15T10:12:24;2.10;99.90
46608;DHT22;32330;51.936;7.184;2024-01-15T10:14:52;2.00;99.90
46608;DHT22;32330;51.936;7.184;2024-01-15T10:17:20;2.00;99.90
46608;DHT22;32330;51.936;7.184;2024-01-15T10:19:48;2.00;99.90
46608;DHT22;32330;51.936;7.184;2024-01-15T10:22:16;2.10;99.90
46608;DHT22;32330;51.936;7.184;2024-01-15T10:24:45;2.10;99.90
46608;DHT22;32330;51.936;7.184;2024-01-15T10:28:14;2.20;99.90
46608;DHT22;32330;51.936;7.184;2024-01-15T10:30:26;2.10;99.90
46608;DHT22;32330;51.936;7.184;2024-01-15T10:32:57;2.20;99.90
46608;DHT22;32330;51.936;7.184;2024-01-15T10:35:27;2.30;99.90
46608;DHT22;32330;51.936;7.184;2024-01-15T10:37:54;2.20;99.90
46608;DHT22;32330;51.936;7.184;2024-01-15T10:40:23;2.20;99.90
46608;DHT22;32330;51.936;7.184;2024-01-15T10:42:50;2.20;99.90
46608;DHT22;32330;51.936;7.184;2024-01-15T10:45:17;2.30;99.90
46608;DHT22;32330;51.936;7.184;2024-01-15T10:47:44;2.60;99.90
46608;DHT22;32330;51.936;7.184;2024-01-15T10:50:12;2.40;99.90
46608;DHT22;32330;51.936;7.184;2024-01-15T10:52:40;2.30;99.90
46608;DHT22;32330;51.936;7.184;2024-01-15T10:55:08;2.20;99.90
46608;DHT22;32330;51.936;7.184;2024-01-15T10:57:38;2.20;99.90
46608;DHT22;32330;51.936;7.184;2024-01-15T11:00:09;2.20;99.90
46608;DHT22;32330;51.936;7.184;2024-01-15T11:02:40;2.20;99.90
46608;DHT22;32330;51.936;7.184;2024-01-15T11:05:09;2.00;99.90
46608;DHT22;32330;51.936;7.184;2024-01-15T11:07:36;2.00;99.90
46608;DHT22;32330;51.936;7.184;2024-01-15T11:10:07;2.10;99.90
46608;DHT22;32330;51.936;7.184;2024-01-15T11:12:41;2.10;99.90
46608;DHT22;32330;51.936;7.184;2024-01-15T11:15:19;2.00;99.90
46608;DHT22;32330;51.936;7.184;2024-01-15T11:18:00;2.10;99.90
46608;DHT22;32330;51.936;7.184;2024-01-15T11:20:29;2.10;99.90
46608;DHT22;32330;51.936;7.184;2024-01-15T11:22:58;2.00;99.90
46608;DHT22;32330;51.936;7.184;2024-01-15T11:25:34;2.10;99.90
46608;DHT22;32330;51.936;7.184;2024-01-15T11:28:04;2.30;99.90
46608;DHT22;32330;51.936;7.184;2024-01-15T11:30:31;2.70;99.90
46608;DHT22;32330;51.936;7.184;2024-01-15T11:33:02;2.60;99.90
46608;DHT22;32330;51.936;7.184;2024-01-15T11:35:48;2.60;99.90
46608;DHT22;32330;51.936;7.184;2024-01-15T11:38:27;2.60;99.90
46608;DHT22;32330;51.936;7.184;2024-01-15T11:40:54;2.60;99.90
46608;DHT22;32330;51.936;7.184;2024-01-15T11:43:23;2.50;99.90
46608;DHT22;32330;51.936;7.184;2024-01-15T11:45:52;2.50;99.90
46608;DHT22;32330;51.936;7.184;2024-01-15T11:48:20;2.40;99.90
46608;DHT22;32330;51.936;7.184;2024-01-15T11:50:50;2.50;99.90
46608;DHT22;32330;51.936;7.184;2024-01-15T11:53:23;2.50;99.90
46608;DHT22;32330;51.936;7.184;2024-01-15T11:55:52;2.60;99.90
46608;DHT22;32330;51.936;7.184;2024-01-15T11:58:25;2.60;99.90
46608;DHT22;32330;51.936;7.184;2024-01-15T12:00:52;2.40;99.90
46608;DHT22;32330;51.936;7.184;2024-01-15T12:03:21;2.40;99.90
46608;DHT22;32330;51.936;7.184;2024-01-15T12:05:48;2.40;99.90
46608;DHT22;32330;51.936;7.184;2024-01-15T12:08:15;2.50;99.90
46608;DHT22;32330;51.936;7.184;2024-01-15T12:10:47;2.50;99.90
46608;DHT22;32330;51.936;7.184;2024-01-15T12:13:15;2.50;99.90
46608;DHT22;32330;51.936;7.184;2024-01-15T12:15:46;2.60;99.90
46608;DHT22;32330;51.936;7.184;2024-01-15T12:18:15;2.50;99.90
46608;DHT22;32330;51.936;7.184;2024-01-15T12:20:42;2.60;99.90
46608;DHT22;32330;51.936;7.184;2024-01-15T12:23:10;2.80;99.90
46608;DHT22;32330;51.936;7.184;2024-01-15T12:25:39;2.90;99.90
46608;DHT22;32330;51.936;7.184;2024-01-15T12:28:09;2.90;99.90
46608;DHT22;32330;51.936;7.184;2024-01-15T12:30:36;3.00;99.90
46608;DHT22;32330;51.936;7.184;2024-01-15T12:33:06;3.00;99.90
46608;DHT22;32330;51.936;7.184;2024-01-15T12:35:33;3.00;99.90
46608;DHT22;32330;51.936;7.184;2024-01-15T12:38:01;3.10;99.90
46608;DHT22;32330;51.936;7.184;2024-01-15T12:40:30;3.00;99.90
46608;DHT22;32330;51.936;7.184;2024-01-15T12:42:57;2.80;99.90
46608;DHT22;32330;51.936;7.184;2024-01-15T12:45:25;2.70;99.90
46608;DHT22;32330;51.936;7.184;2024-01-15T12:48:27;2.60;99.90
46608;DHT22;32330;51.936;7.184;2024-01-15T12:50:55;2.60;99.90
46608;DHT22;32330;51.936;7.184;2024-01-15T12:53:22;2.50;99.90
46608;DHT22;32330;51.936;7.184;2024-01-15T12:56:12;2.50;99.90
46608;DHT22;32330;51.936;7.184;2024-01-15T12:58:39;2.50;99.90
46608;DHT22;32330;51.936;7.184;2024-01-15T13:01:09;2.50;99.90
46608;DHT22;32330;51.936;7.184;2024-01-15T13:03:38;2.50;99.90
46608;DHT22;32330;51.936;7.184;2024-01-15T13:06:05;2.40;99.90
46608;DHT22;32330;51.936;7.184;2024-01-15T13:08:32;2.40;99.90
46608;DHT22;32330;51.936;7.184;2024-01-15T13:10:59;2.40;99.90
46608;DHT22;32330;51.936;7.184;2024-01-15T13:13:26;2.50;99.90
46608;DHT22;32330;51.936;7.184;2024-01-15T13:15:53;2.50;99.90
46608;DHT22;32330;51.936;7.184;2024-01-15T13:18:20;2.70;99.90
46608;DHT22;32330;51.936;7.184;2024-01-15T13:20:49;2.70;99.90
46608;DHT22;32330;51.936;7.184;2024-01-15T13:23:17;2.70;99.90
46608;DHT22;32330;51.936;7.184;2024-01-15T13:25:44;2.60;99.90
46608;DHT22;32330;51.936;7.184;2024-01-15T13:28:11;2.70;99.90
46608;DHT22;32330;51.936;7.184;2024-01-15T13:30:38;2.80;99.90
46608;DHT22;32330;51.936;7.184;2024-01-15T13:33:05;2.70;99.90
46608;DHT22;32330;51.936;7.184;2024-01-15T13:35:34;2.80;99.90
46608;DHT22;32330;51.936;7.184;2024-01-15T13:38:04;2.80;99.90
46608;DHT22;32330;51.936;7.184;2024-01-15T13:40:31;2.70;99.90
46608;DHT22;32330;51.936;7.184;2024-01-15T13:42:58;2.60;99.90
46608;DHT22;32330;51.936;7.184;2024-01-15T13:45:25;2.50;99.90
46608;DHT22;32330;51.936;7.184;2024-01-15T13:47:52;2.50;99.90
46608;DHT22;32330;51.936;7.184;2024-01-15T13:50:19;2.50;99.90
46608;DHT22;32330;51.936;7.184;2024-01-15T13:52:46;2.50;99.90
46608;DHT22;32330;51.936;7.184;2024-01-15T13:55:15;2.40;99.90
46608;DHT22;32330;51.936;7.184;2024-01-15T13:57:42;2.50;99.90
46608;DHT22;32330;51.936;7.184;2024-01-15T14:00:10;2.40;99.90
46608;DHT22;32330;51.936;7.184;2024-01-15T14:02:38;2.40;99.90
46608;DHT22;32330;51.936;7.184;2024-01-15T14:05:05;2.50;99.90
46608;DHT22;32330;51.936;7.184;2024-01-15T14:07:33;2.50;99.90
46608;DHT22;32330;51.936;7.184;2024-01-15T14:10:00;2.50;99.90
46608;DHT22;32330;51.936;7.184;2024-01-15T14:12:28;2.60;99.90
46608;DHT22;32330;51.936;7.184;2024-01-15T14:14:55;2.60;99.90
46608;DHT22;32330;51.936;7.184;2024-01-15T14:17:22;2.60;99.90
46608;DHT22;32330;51.936;7.184;2024-01-15T14:19:49;2.50;99.90
46608;DHT22;32330;51.936;7.184;2024-01-15T14:22:16;2.50;99.90
46608;DHT22;32330;51.936;7.184;2024-01-15T14:24:43;2.50;99.90
46608;DHT22;32330;51.936;7.184;2024-01-15T14:27:10;2.50;99.90
46608;DHT22;32330;51.936;7.184;2024-01-15T14:29:39;2.40;99.90
46608;DHT22;32330;51.936;7.184;2024-01-15T14:32:06;2.50;99.90
46608;DHT22;32330;51.936;7.184;2024-01-15T14:34:33;2.50;99.90
46608;DHT22;32330;51.936;7.184;2024-01-15T14:37:02;2.40;99.90
46608;DHT22;32330;51.936;7.184;2024-01-15T14:39:29;2.40;99.90
46608;DHT22;32330;51.936;7.184;2024-01-15T14:41:59;2.40;99.90
46608;DHT22;32330;51.936;7.184;2024-01-15T14:44:27;2.40;99.90
46608;DHT22;32330;51.936;7.184;2024-01-15T14:46:56;2.50;99.90
46608;DHT22;32330;51.936;7.184;2024-01-15T14:49:24;2.50;99.90
46608;DHT22;32330;51.936;7.184;2024-01-15T14:51:51;2.50;99.90
46608;DHT22;32330;51.936;7.184;2024-01-15T14:54:18;2.50;99.90
46608;DHT22;32330;51.936;7.184;2024-01-15T14:56:46;2.50;99.90
46608;DHT22;32330;51.936;7.184;2024-01-15T14:59:13;2.50;99.90
46608;DHT22;32330;51.936;7.184;2024-01-15T15:01:40;2.40;99.90
46608;DHT22;32330;51.936;7.184;2024-01-15T15:04:09;2.50;99.90
46608;DHT22;32330;51.936;7.184;2024-01-15T15:06:36;2.40;99.90
46608;DHT22;32330;51.936;7.184;2024-01-15T15:09:04;2.40;99.90
46608;DHT22;32330;51.936;7.184;2024-01-15T15:11:37;2.50;99.90
46608;DHT22;32330;51.936;7.184;2024-01-15T15:14:04;2.50;99.90
46608;DHT22;32330;51.936;7.184;2024-01-15T15:16:31;2.40;99.90
46608;DHT22;32330;51.936;7.184;2024-01-15T15:18:58;2.40;99.90
46608;DHT22;32330;51.936;7.184;2024-01-15T15:21:27;2.30;99.90
46608;DHT22;32330;51.936;7.184;2024-01-15T15:23:55;2.30;99.90
46608;DHT22;32330;51.936;7.184;2024-01-15T15:26:22;2.20;99.90
46608;DHT22;32330;51.936;7.184;2024-01-15T15:28:49;2.10;99.90
46608;DHT22;32330;51.936;7.184;2024-01-15T15:31:16;2.10;99.90
46608;DHT22;32330;51.936;7.184;2024-01-15T15:33:43;2.10;99.90
46608;DHT22;32330;51.936;7.184;2024-01-15T15:36:11;2.00;99.90
46608;DHT22;32330;51.936;7.184;2024-01-15T15:38:39;2.00;99.90
46608;DHT22;32330;51.936;7.184;2024-01-15T15:41:06;2.00;99.90
46608;DHT22;32330;51.936;7.184;2024-01-15T15:43:33;1.90;99.90
46608;DHT22;32330;51.936;7.184;2024-01-15T15:46:01;1.90;99.90
46608;DHT22;32330;51.936;7.184;2024-01-15T15:48:30;1.90;99.90
46608;DHT22;32330;51.936;7.184;2024-01-15T15:50:57;1.90;99.90
46608;DHT22;32330;51.936;7.184;2024-01-15T15:53:25;1.80;99.90